Time;durP1;ratioP1;P1;durP2;ratioP2;P2;SDS_P1;SDS_P2;PMS_P1;PMS_P2;Temp;Humidity;BMP_temperature;BMP_pressure;BME280_temperature;BME280_humidity;BME280_pressure;Samples;Min_cycle;Max_cycle;Signal;HPM_P1;HPM_P2
2022/06/17 00:01:03;;;;;;;27.42;18.33;;;15.50;99.90;;;;;;4980020;28;20065;-86
2022/06/17 00:03:32;;;;;;;27.70;17.65;;;15.40;99.90;;;;;;4982127;28;20105;-84
2022/06/17 00:06:01;;;;;;;29.52;16.90;;;15.30;99.90;;;;;;4976620;28;20186;-88
2022/06/17 00:08:45;;;;;;;22.77;16.83;;;15.30;99.90;;;;;;4977177;28;20018;-88
2022/06/17 00:11:17;;;;;;;27.40;19.90;;;15.20;99.90;;;;;;4978655;28;20425;-88
2022/06/17 00:13:43;;;;;;;33.38;20.77;;;15.00;99.90;;;;;;4980165;28;20036;-86
2022/06/17 00:16:15;;;;;;;30.35;21.13;;;15.00;99.90;;;;;;4985278;28;20054;-87
2022/06/17 00:18:42;;;;;;;30.58;20.35;;;14.90;99.90;;;;;;4976340;28;20031;-88
2022/06/17 00:21:33;;;;;;;34.95;22.27;;;14.80;99.90;;;;;;4975772;28;20070;-89
2022/06/17 00:24:00;;;;;;;32.75;21.02;;;14.50;99.90;;;;;;4978093;28;20033;-86
2022/06/17 00:26:27;;;;;;;37.03;20.65;;;14.40;99.90;;;;;;4985857;28;20034;-86
2022/06/17 00:28:53;;;;;;;36.37;22.43;;;14.30;99.90;;;;;;5000936;28;20018;-87
2022/06/17 00:31:19;;;;;;;37.30;23.77;;;14.20;99.90;;;;;;5017436;28;20050;-86
2022/06/17 00:33:46;;;;;;;34.85;23.02;;;14.30;99.90;;;;;;4987099;28;20126;-86
2022/06/17 00:36:17;;;;;;;39.40;24.17;;;14.40;99.90;;;;;;4988971;28;20312;-88
2022/06/17 00:38:45;;;;;;;42.33;23.60;;;14.40;99.90;;;;;;4997560;28;20038;-87
2022/06/17 00:41:22;;;;;;;;;;;14.40;99.90;;;;;;4999896;28;20078;-87
2022/06/17 00:43:48;;;;;;;36.47;24.75;;;14.30;99.90;;;;;;4982500;28;19933;-86
2022/06/17 00:46:26;;;;;;;34.83;23.40;;;14.20;99.90;;;;;;4999291;28;20030;-87
2022/06/17 00:49:20;;;;;;;42.40;26.38;;;14.20;99.90;;;;;;4980998;28;20110;-88
2022/06/17 00:51:59;;;;;;;56.55;25.52;;;14.20;99.90;;;;;;4981237;28;20081;-85
2022/06/17 00:54:34;;;;;;;62.08;28.20;;;14.10;99.90;;;;;;4987466;28;20026;-86
2022/06/17 00:57:01;;;;;;;74.63;29.33;;;14.10;99.90;;;;;;4981377;28;20037;-87
2022/06/17 00:59:26;;;;;;;74.47;29.02;;;14.10;99.90;;;;;;4999094;28;20034;-87
2022/06/17 01:02:03;;;;;;;98.97;33.15;;;14.30;99.90;;;;;;4980995;28;20130;-87
2022/06/17 01:04:38;;;;;;;52.38;29.08;;;14.30;99.90;;;;;;4978954;28;20026;-84
2022/06/17 01:07:21;;;;;;;66.30;32.35;;;14.40;99.90;;;;;;4979924;28;20486;-87
2022/06/17 01:09:58;;;;;;;56.63;33.03;;;14.40;99.90;;;;;;4980751;28;20073;-86
2022/06/17 01:12:41;;;;;;;59.75;33.05;;;14.40;99.90;;;;;;4979744;28;20027;-87
2022/06/17 01:15:10;;;;;;;53.55;33.13;;;14.40;99.90;;;;;;4997020;28;20049;-89
2022/06/17 01:17:39;;;;;;;49.92;30.92;;;14.40;99.90;;;;;;4981014;28;20523;-83
2022/06/17 01:20:08;;;;;;;49.85;29.52;;;14.50;99.90;;;;;;4980111;28;20493;-86
2022/06/17 01:22:48;;;;;;;45.30;28.30;;;14.60;99.90;;;;;;4981230;28;20025;-85
2022/06/17 01:25:25;;;;;;;52.75;29.67;;;14.60;99.90;;;;;;4979495;28;20039;-87
2022/06/17 01:27:59;;;;;;;54.47;28.98;;;14.60;99.90;;;;;;4978580;28;20034;-86
2022/06/17 01:30:37;;;;;;;70.53;27.92;;;14.60;99.90;;;;;;4979662;28;20034;-85
2022/06/17 01:33:31;;;;;;;144.05;30.25;;;14.40;99.90;;;;;;4980467;28;20026;-87
2022/06/17 01:35:58;;;;;;;121.32;29.88;;;14.30;99.90;;;;;;4962966;28;20067;-87
2022/06/17 01:38:25;;;;;;;;;;;14.40;99.90;;;;;;4997375;28;20045;-88
2022/06/17 01:40:54;;;;;;;40.85;25.10;;;14.40;99.90;;;;;;4981445;28;19909;-86
2022/06/17 01:43:23;;;;;;;39.00;26.00;;;14.40;99.90;;;;;;4981285;28;20489;-86
2022/06/17 01:46:00;;;;;;;40.97;25.90;;;14.50;99.90;;;;;;5001016;28;20058;-86
2022/06/17 01:48:32;;;;;;;42.97;25.87;;;14.50;99.90;;;;;;4980003;28;20125;-85
2022/06/17 01:51:03;;;;;;;41.75;26.00;;;14.60;99.90;;;;;;4977875;28;20489;-87
2022/06/17 01:53:33;;;;;;;36.63;23.45;;;14.50;99.90;;;;;;4966977;28;20042;-84
2022/06/17 01:56:05;;;;;;;30.90;22.00;;;14.60;99.90;;;;;;4982769;28;20088;-87
2022/06/17 01:58:39;;;;;;;30.05;22.20;;;14.60;99.90;;;;;;4982081;28;20088;-89
2022/06/17 02:01:06;;;;;;;30.80;21.25;;;14.60;99.90;;;;;;4981800;28;20069;-87
2022/06/17 02:03:56;;;;;;;27.83;21.30;;;14.60;99.90;;;;;;4980449;28;20027;-87
2022/06/17 02:06:25;;;;;;;30.42;21.13;;;14.60;99.90;;;;;;4982681;28;20529;-86
2022/06/17 02:08:52;;;;;;;28.63;21.15;;;14.60;99.90;;;;;;4981357;28;20122;-88
2022/06/17 02:11:22;;;;;;;29.43;20.63;;;14.50;99.90;;;;;;4980337;28;20030;-84
2022/06/17 02:13:48;;;;;;;25.02;19.73;;;14.60;99.90;;;;;;4981169;28;20034;-86
2022/06/17 02:16:15;;;;;;;26.88;19.48;;;14.60;99.90;;;;;;4981186;28;20052;-87
2022/06/17 02:18:43;;;;;;;25.00;19.45;;;14.70;99.90;;;;;;4991483;28;20045;-88
2022/06/17 02:21:23;;;;;;;26.80;19.27;;;14.70;99.90;;;;;;5015029;28;20022;-86
2022/06/17 02:23:50;;;;;;;26.20;20.50;;;14.70;99.90;;;;;;5004745;28;20090;-90
2022/06/17 02:26:16;;;;;;;26.92;20.20;;;14.70;99.90;;;;;;4978035;28;20104;-86
2022/06/17 02:28:47;;;;;;;23.92;18.77;;;14.70;99.90;;;;;;4977978;28;20018;-85
2022/06/17 02:31:14;;;;;;;23.67;18.92;;;14.70;99.90;;;;;;4979578;28;20497;-83
2022/06/17 02:33:41;;;;;;;25.63;19.05;;;14.60;99.90;;;;;;4979787;28;20086;-88
2022/06/17 02:36:17;;;;;;;27.98;21.65;;;14.50;99.90;;;;;;4980009;28;20120;-84
2022/06/17 02:38:45;;;;;;;26.98;18.98;;;14.50;99.90;;;;;;4979012;28;20046;-88
2022/06/17 02:41:17;;;;;;;28.63;18.83;;;14.50;99.90;;;;;;4978053;28;20022;-89
2022/06/17 02:43:54;;;;;;;25.35;20.75;;;14.60;99.90;;;;;;4979607;28;20048;-87
2022/06/17 02:46:31;;;;;;;25.83;20.17;;;14.50;99.90;;;;;;4981922;28;20019;-86
2022/06/17 02:49:04;;;;;;;28.45;20.08;;;14.60;99.90;;;;;;4978012;28;20030;-88
2022/06/17 02:51:33;;;;;;;28.85;20.23;;;14.60;99.90;;;;;;4975181;28;20034;-89
2022/06/17 02:54:02;;;;;;;23.27;17.67;;;14.70;99.90;;;;;;4976134;28;20034;-86
2022/06/17 02:56:31;;;;;;;21.63;17.35;;;14.60;99.90;;;;;;4979192;28;20058;-87
2022/06/17 03:01:34;;;;;;;27.02;18.30;;;14.70;99.90;;;;;;5028888;23;20061;-52
2022/06/17 03:04:03;;;;;;;23.20;17.80;;;14.70;99.90;;;;;;5010018;28;20469;-52
2022/06/17 03:06:35;;;;;;;24.63;18.80;;;14.80;99.90;;;;;;5010170;28;20038;-52
2022/06/17 03:09:33;;;;;;;27.92;19.52;;;14.80;99.90;;;;;;5010123;28;20135;-51
2022/06/17 03:12:01;;;;;;;27.17;19.20;;;14.90;99.90;;;;;;5009957;28;20100;-52
2022/06/17 03:14:35;;;;;;;23.75;19.05;;;14.90;99.90;;;;;;5010303;28;20077;-52
2022/06/17 03:17:06;;;;;;;22.70;16.58;;;14.80;99.90;;;;;;5008432;28;20080;-52
2022/06/17 03:19:36;;;;;;;21.90;16.42;;;14.80;99.90;;;;;;5010117;28;20116;-53
2022/06/17 03:22:06;;;;;;;20.95;15.85;;;14.80;99.90;;;;;;5010048;28;20022;-52
2022/06/17 03:24:44;;;;;;;21.63;17.75;;;14.80;99.90;;;;;;5008758;28;20030;-50
2022/06/17 03:27:17;;;;;;;22.52;15.52;;;14.80;99.90;;;;;;5010114;28;20026;-50
2022/06/17 03:29:45;;;;;;;20.83;13.40;;;14.90;99.90;;;;;;5009962;28;20092;-50
2022/06/17 03:32:24;;;;;;;15.32;12.27;;;14.80;99.90;;;;;;5009658;28;20072;-50
2022/06/17 03:34:53;;;;;;;15.50;11.52;;;14.70;99.90;;;;;;5012030;28;20548;-50
2022/06/17 03:37:34;;;;;;;17.52;12.05;;;14.70;99.90;;;;;;5011587;28;20084;-51
2022/06/17 03:40:14;;;;;;;18.80;12.50;;;14.70;99.90;;;;;;5029494;28;20555;-51
2022/06/17 03:43:05;;;;;;;15.10;10.85;;;14.70;99.90;;;;;;5029475;28;20793;-51
2022/06/17 03:45:43;;;;;;;17.23;12.55;;;14.70;99.90;;;;;;5028422;28;20037;-51
2022/06/17 03:48:15;;;;;;;22.20;13.70;;;14.70;99.90;;;;;;5011669;28;20068;-50
2022/06/17 03:50:47;;;;;;;21.13;14.45;;;14.70;99.90;;;;;;5029457;28;20061;-51
2022/06/17 03:53:21;;;;;;;18.38;14.20;;;14.50;99.90;;;;;;5029370;28;20033;-51
2022/06/17 03:55:47;;;;;;;18.58;12.98;;;14.60;99.90;;;;;;5029249;28;20552;-50
2022/06/17 03:58:16;;;;;;;16.42;13.32;;;14.60;99.90;;;;;;5011358;28;20033;-51
2022/06/17 04:01:01;;;;;;;19.02;12.02;;;14.50;99.90;;;;;;5022066;28;20046;-50
2022/06/17 04:03:32;;;;;;;12.55;10.13;;;14.50;99.90;;;;;;5009518;28;20022;-51
2022/06/17 04:06:10;;;;;;;18.88;10.50;;;14.50;99.90;;;;;;5009862;28;20026;-50
2022/06/17 04:08:59;;;;;;;19.08;11.57;;;14.50;99.90;;;;;;5009718;28;20102;-50
2022/06/17 04:11:38;;;;;;;15.98;11.15;;;14.50;99.90;;;;;;5009554;28;20041;-51
2022/06/17 04:14:13;;;;;;;13.30;10.35;;;14.40;99.90;;;;;;5009489;28;20030;-50
2022/06/17 04:17:08;;;;;;;14.18;10.90;;;14.40;99.90;;;;;;5011506;28;20039;-50
2022/06/17 04:19:33;;;;;;;16.70;11.38;;;14.30;99.90;;;;;;5012811;28;20049;-50
2022/06/17 04:22:22;;;;;;;15.68;11.73;;;14.30;99.90;;;;;;5013047;28;20026;-50
2022/06/17 04:24:51;;;;;;;;;;;14.30;99.90;;;;;;5013265;28;20033;-50
2022/06/17 04:27:19;;;;;;;48.92;12.18;;;14.30;99.90;;;;;;5012852;28;20352;-51
2022/06/17 04:29:46;;;;;;;;;;;14.40;99.90;;;;;;4996035;28;20029;-51
2022/06/17 04:32:22;;;;;;;16.33;11.23;;;14.40;99.90;;;;;;5012626;28;19906;-51
2022/06/17 04:34:47;;;;;;;20.23;11.57;;;14.30;99.90;;;;;;5012707;28;20040;-51
2022/06/17 04:37:19;;;;;;;13.63;9.45;;;14.30;99.90;;;;;;5012536;28;20037;-50
2022/06/17 04:39:51;;;;;;;13.05;9.32;;;14.30;99.90;;;;;;5012422;28;20049;-51
2022/06/17 04:42:22;;;;;;;18.27;11.02;;;14.30;99.90;;;;;;5012503;28;20048;-51
2022/06/17 04:44:51;;;;;;;15.75;9.38;;;14.30;99.90;;;;;;5012505;28;20032;-51
2022/06/17 04:47:20;;;;;;;13.65;8.57;;;14.30;99.90;;;;;;5012280;28;20562;-52
2022/06/17 04:50:09;;;;;;;12.88;8.88;;;14.30;99.90;;;;;;5012186;28;20445;-50
2022/06/17 04:52:41;;;;;;;13.32;7.72;;;14.30;99.90;;;;;;5012511;28;20433;-51
2022/06/17 04:55:17;;;;;;;11.23;7.43;;;14.40;99.90;;;;;;5012296;28;20098;-50
2022/06/17 04:57:43;;;;;;;10.77;7.00;;;14.40;99.90;;;;;;5012164;28;20033;-51
2022/06/17 05:00:18;;;;;;;9.98;6.30;;;14.40;99.90;;;;;;5003838;28;20054;-51
2022/06/17 05:02:44;;;;;;;9.93;6.35;;;14.40;99.90;;;;;;5005229;28;20558;-51
2022/06/17 05:05:16;;;;;;;10.20;6.32;;;14.50;99.90;;;;;;5011869;28;20121;-51
2022/06/17 05:07:45;;;;;;;10.15;4.85;;;14.50;99.90;;;;;;5012080;28;20072;-50
2022/06/17 05:10:28;;;;;;;15.45;5.30;;;14.50;99.90;;;;;;4991146;28;20351;-51
2022/06/17 05:13:10;;;;;;;12.18;5.38;;;14.50;99.90;;;;;;5011739;28;20065;-51
2022/06/17 05:15:37;;;;;;;9.73;5.55;;;14.60;99.90;;;;;;5011825;28;20132;-51
2022/06/17 05:18:03;;;;;;;11.13;5.60;;;14.60;99.90;;;;;;5011760;28;20113;-51
2022/06/17 05:20:28;;;;;;;17.35;5.97;;;14.70;99.90;;;;;;5011687;28;20525;-51
2022/06/17 05:23:01;;;;;;;11.73;6.25;;;14.70;99.90;;;;;;5011571;28;20493;-51
2022/06/17 05:25:39;;;;;;;9.68;5.93;;;14.80;99.90;;;;;;5011592;28;20072;-51
2022/06/17 05:28:07;;;;;;;13.52;5.78;;;14.80;99.90;;;;;;5010531;28;20076;-51
2022/06/17 05:30:38;;;;;;;14.40;6.60;;;14.90;99.90;;;;;;5011717;28;20030;-52
2022/06/17 05:33:04;;;;;;;10.13;5.90;;;14.90;99.90;;;;;;5011516;28;20034;-51
2022/06/17 05:35:31;;;;;;;11.35;6.82;;;14.90;99.90;;;;;;5011473;28;20033;-52
2022/06/17 05:37:57;;;;;;;9.60;6.23;;;14.90;99.90;;;;;;5011187;28;20477;-51
2022/06/17 05:40:23;;;;;;;13.90;7.85;;;15.10;99.90;;;;;;5011234;28;20604;-51
2022/06/17 05:42:50;;;;;;;10.57;7.35;;;15.10;99.90;;;;;;5011302;28;20097;-52
2022/06/17 05:45:24;;;;;;;15.43;7.45;;;15.10;99.90;;;;;;5011458;28;20757;-52
2022/06/17 05:47:50;;;;;;;14.40;8.10;;;15.20;99.90;;;;;;4990120;28;20371;-52
2022/06/17 05:50:17;;;;;;;14.95;8.68;;;15.30;99.90;;;;;;5008596;28;20037;-51
2022/06/17 05:52:48;;;;;;;21.48;10.55;;;15.30;99.90;;;;;;5011244;28;20060;-51
2022/06/17 05:55:14;;;;;;;19.67;10.80;;;15.30;99.90;;;;;;5010932;28;20469;-52
2022/06/17 05:57:39;;;;;;;16.58;9.43;;;15.30;99.90;;;;;;5011143;28;20037;-50
2022/06/17 06:00:06;;;;;;;15.95;9.48;;;15.40;99.90;;;;;;5009393;28;20057;-52
2022/06/17 06:02:31;;;;;;;16.30;10.05;;;15.50;99.90;;;;;;4991510;28;20030;-51
2022/06/17 06:04:57;;;;;;;13.45;9.52;;;15.60;99.90;;;;;;4991321;28;20083;-51
2022/06/17 06:07:23;;;;;;;21.80;9.45;;;15.60;99.90;;;;;;4991339;28;20035;-52
2022/06/17 06:09:48;;;;;;;22.50;10.50;;;15.60;99.90;;;;;;4990856;28;20030;-51
2022/06/17 06:12:14;;;;;;;17.90;10.02;;;15.60;99.90;;;;;;4991079;28;20030;-52
2022/06/17 06:14:40;;;;;;;15.65;9.02;;;15.70;99.90;;;;;;4991296;28;20121;-52
2022/06/17 06:17:05;;;;;;;14.18;9.38;;;15.70;99.90;;;;;;4991064;28;20026;-51
2022/06/17 06:19:32;;;;;;;13.07;9.50;;;15.80;99.90;;;;;;4990853;28;20042;-52
2022/06/17 06:21:58;;;;;;;16.20;10.18;;;15.80;99.90;;;;;;4991110;28;20109;-52
2022/06/17 06:24:24;;;;;;;18.73;10.40;;;15.80;99.90;;;;;;4990972;28;20561;-52
2022/06/17 06:26:49;;;;;;;15.02;9.75;;;15.90;99.90;;;;;;4991082;28;20027;-52
2022/06/17 06:29:15;;;;;;;12.45;9.10;;;15.90;99.90;;;;;;4991024;28;20469;-52
2022/06/17 06:31:41;;;;;;;11.13;8.60;;;15.90;99.90;;;;;;4991105;28;20022;-51
2022/06/17 06:34:08;;;;;;;13.93;8.77;;;15.90;99.90;;;;;;4990661;28;20394;-51
2022/06/17 06:36:33;;;;;;;16.27;9.00;;;15.80;99.90;;;;;;4990882;28;20032;-52
2022/06/17 06:38:59;;;;;;;12.38;8.07;;;15.90;99.90;;;;;;4990667;28;20133;-52
2022/06/17 06:41:26;;;;;;;10.85;7.93;;;16.00;99.90;;;;;;4990610;28;20030;-53
2022/06/17 06:43:51;;;;;;;13.50;8.50;;;16.00;99.90;;;;;;4990957;28;20030;-52
2022/06/17 06:46:19;;;;;;;13.73;8.65;;;16.10;99.90;;;;;;4990661;28;20064;-51
2022/06/17 06:48:46;;;;;;;11.07;7.68;;;16.10;99.90;;;;;;4990463;28;20029;-52
2022/06/17 06:51:12;;;;;;;12.43;7.97;;;16.20;99.90;;;;;;4990870;28;20525;-52
2022/06/17 06:53:38;;;;;;;17.10;7.88;;;16.30;99.90;;;;;;4990736;28;20062;-52
2022/06/17 06:56:05;;;;;;;14.88;7.80;;;16.30;99.90;;;;;;4990809;28;20795;-53
2022/06/17 06:58:32;;;;;;;11.15;7.53;;;16.40;99.90;;;;;;4990537;28;20030;-52
2022/06/17 07:00:59;;;;;;;11.90;6.88;;;16.50;99.90;;;;;;4998872;28;20061;-52
2022/06/17 07:03:26;;;;;;;14.93;6.88;;;16.60;99.90;;;;;;5010101;28;20041;-52
2022/06/17 07:05:55;;;;;;;11.52;8.18;;;16.70;99.90;;;;;;5010179;28;20026;-52
2022/06/17 07:08:24;;;;;;;14.98;7.93;;;16.70;99.90;;;;;;5009960;28;20073;-50
2022/06/17 07:10:52;;;;;;;10.02;6.80;;;16.80;99.90;;;;;;5010122;28;20493;-51
2022/06/17 07:13:19;;;;;;;11.98;7.97;;;16.70;99.90;;;;;;5010004;28;20128;-51
2022/06/17 07:15:47;;;;;;;15.05;8.25;;;16.80;99.90;;;;;;5009823;28;20069;-51
2022/06/17 07:18:15;;;;;;;13.07;7.75;;;16.80;99.90;;;;;;5010042;28;20049;-51
2022/06/17 07:20:46;;;;;;;11.60;7.30;;;16.90;99.90;;;;;;5010040;28;20401;-51
2022/06/17 07:23:33;;;;;;;11.98;7.45;;;17.00;99.90;;;;;;5010081;28;20113;-51
2022/06/17 07:26:00;;;;;;;13.02;7.70;;;17.10;99.90;;;;;;5010050;28;20026;-51
2022/06/17 07:28:26;;;;;;;;;;;17.20;99.90;;;;;;5010242;28;20104;-51
2022/06/17 07:30:54;;;;;;;11.63;7.35;;;17.10;99.90;;;;;;5010157;28;19909;-51
2022/06/17 07:33:22;;;;;;;14.45;8.20;;;17.20;99.90;;;;;;5009910;28;20080;-51
2022/06/17 07:35:50;;;;;;;11.32;6.82;;;17.30;99.90;;;;;;5009962;28;20556;-50
2022/06/17 07:41:07;;;;;;;11.07;7.55;;;17.30;99.90;;;;;;5010138;28;20048;-51
2022/06/17 07:43:33;;;;;;;13.38;7.55;;;17.40;99.90;;;;;;5009773;28;20014;-51
2022/06/17 07:46:01;;;;;;;10.33;6.77;;;17.40;99.90;;;;;;5009829;28;20150;-51
2022/06/17 07:48:27;;;;;;;11.80;7.30;;;17.50;99.90;;;;;;5009648;28;20022;-51
2022/06/17 07:50:53;;;;;;;13.52;8.38;;;17.70;99.90;;;;;;5010920;28;20030;-51
2022/06/17 07:53:19;;;;;;;9.70;6.93;;;17.70;99.90;;;;;;5013767;28;20022;-52
2022/06/17 07:55:46;;;;;;;9.43;6.53;;;17.80;99.90;;;;;;5013385;28;20088;-52
2022/06/17 07:58:13;;;;;;;11.35;6.80;;;17.70;99.90;;;;;;5013459;28;20049;-52
2022/06/17 08:00:44;;;;;;;11.75;6.47;;;17.80;99.90;;;;;;5000337;28;20046;-51
2022/06/17 08:03:11;;;;;;;7.65;5.60;;;17.90;99.90;;;;;;4995724;28;20097;-51
2022/06/17 08:05:40;;;;;;;11.32;7.00;;;18.00;99.90;;;;;;5013316;28;20029;-51
2022/06/17 08:08:08;;;;;;;11.73;6.00;;;18.00;99.90;;;;;;5013318;28;20041;-51
2022/06/17 08:10:35;;;;;;;9.77;6.20;;;18.00;99.90;;;;;;5013369;28;20553;-51
2022/06/17 08:13:02;;;;;;;9.88;6.35;;;18.10;99.90;;;;;;5013207;28;20389;-51
2022/06/17 08:15:28;;;;;;;;;;;18.20;99.90;;;;;;5013620;28;20504;-51
2022/06/17 08:17:54;;;;;;;8.93;6.07;;;18.20;99.90;;;;;;5013038;28;20284;-51
2022/06/17 08:20:22;;;;;;;9.38;6.38;;;18.10;99.90;;;;;;5012619;28;20385;-50
2022/06/17 08:22:49;;;;;;;12.27;5.97;;;18.10;99.90;;;;;;5013041;28;20033;-51
2022/06/17 08:25:15;;;;;;;7.15;5.57;;;18.00;99.90;;;;;;5012828;28;20531;-51
2022/06/17 08:27:54;;;;;;;8.43;5.43;;;18.00;99.90;;;;;;5013057;28;20034;-51
2022/06/17 08:30:25;;;;;;;9.00;4.78;;;17.90;99.90;;;;;;5012749;28;20030;-51
2022/06/17 08:32:55;;;;;;;8.35;5.00;;;17.90;99.90;;;;;;5012822;28;20640;-51
2022/06/17 08:35:30;;;;;;;14.98;4.90;;;18.00;99.90;;;;;;5012793;28;20022;-50
2022/06/17 08:38:00;;;;;;;8.48;4.97;;;18.10;99.90;;;;;;5012791;28;20041;-52
2022/06/17 08:40:37;;;;;;;21.83;6.72;;;18.30;99.90;;;;;;5012550;28;20501;-51
2022/06/17 08:43:14;;;;;;;11.88;4.80;;;18.50;99.90;;;;;;5012624;28;20033;-52
2022/06/17 08:46:23;;;;;;;7.22;5.07;;;18.60;99.90;;;;;;5012798;28;20038;-52
2022/06/17 08:49:14;;;;;;;11.52;5.25;;;18.60;99.90;;;;;;5012716;28;20037;-51
2022/06/17 08:52:02;;;;;;;9.60;5.00;;;18.70;99.90;;;;;;4988497;28;20046;-51
2022/06/17 08:54:43;;;;;;;10.50;4.18;;;18.80;99.90;;;;;;5012250;28;20037;-51
2022/06/17 08:57:49;;;;;;;7.30;3.63;;;18.80;99.90;;;;;;5012145;28;20703;-51
2022/06/17 09:00:19;;;;;;;10.68;4.25;;;18.80;99.90;;;;;;5005117;28;20093;-51
2022/06/17 09:03:09;;;;;;;7.57;4.35;;;18.80;99.90;;;;;;5011919;28;20080;-51
2022/06/17 09:05:40;;;;;;;7.35;4.38;;;18.90;99.90;;;;;;5012130;28;20584;-51
2022/06/17 09:08:33;;;;;;;9.40;4.45;;;18.90;99.90;;;;;;5011957;28;20080;-52
2022/06/17 09:11:15;;;;;;;8.25;4.15;;;19.00;99.90;;;;;;5011938;28;20463;-52
2022/06/17 09:14:00;;;;;;;6.40;4.00;;;19.40;99.90;;;;;;5012097;28;20037;-51
2022/06/17 09:16:31;;;;;;;8.85;4.22;;;19.40;99.90;;;;;;4993175;28;20031;-51
2022/06/17 09:19:02;;;;;;;7.88;4.00;;;19.40;99.90;;;;;;5011751;28;20571;-51
2022/06/17 09:21:31;;;;;;;6.90;3.47;;;19.50;99.90;;;;;;4993168;28;20077;-50
2022/06/17 09:24:02;;;;;;;9.95;3.13;;;19.60;99.90;;;;;;5011757;28;20025;-51
2022/06/17 09:26:38;;;;;;;9.38;3.28;;;19.70;99.90;;;;;;5011646;28;20080;-52
2022/06/17 09:29:29;;;;;;;7.40;3.03;;;20.00;99.90;;;;;;4990806;28;20029;-51
2022/06/17 09:32:10;;;;;;;6.65;2.42;;;20.20;99.90;;;;;;5006460;28;20037;-52
2022/06/17 09:34:42;;;;;;;6.53;2.60;;;20.30;99.90;;;;;;4994384;28;20077;-52
2022/06/17 09:37:33;;;;;;;5.97;3.05;;;20.30;99.90;;;;;;5011553;28;20041;-51
2022/06/17 09:40:22;;;;;;;8.20;2.58;;;20.30;99.90;;;;;;5011408;28;20037;-51
2022/06/17 09:42:56;;;;;;;6.32;2.30;;;20.40;99.90;;;;;;5011513;28;20025;-51
2022/06/17 09:45:33;;;;;;;6.82;1.90;;;20.30;99.90;;;;;;5011373;28;20026;-51
2022/06/17 09:48:14;;;;;;;6.35;1.90;;;20.50;99.90;;;;;;5011439;28;20025;-52
2022/06/17 09:50:56;;;;;;;5.60;2.20;;;20.50;99.90;;;;;;5011228;28;20034;-51
2022/06/17 09:53:37;;;;;;;4.85;2.00;;;20.50;99.90;;;;;;5011240;28;20045;-51
2022/06/17 09:56:14;;;;;;;2.72;1.70;;;20.50;99.90;;;;;;5011216;28;20026;-51
2022/06/17 09:58:49;;;;;;;7.68;1.90;;;20.50;99.90;;;;;;5011170;28;20536;-51
2022/06/17 10:01:15;;;;;;;5.28;1.67;;;20.40;99.90;;;;;;5001374;28;20052;-51
2022/06/17 10:03:41;;;;;;;8.20;1.70;;;20.40;99.90;;;;;;4973929;28;20110;-51
2022/06/17 10:06:31;;;;;;;3.00;1.30;;;20.60;99.90;;;;;;4991391;28;20065;-51
2022/06/17 10:09:22;;;;;;;4.18;1.02;;;20.80;99.90;;;;;;4973861;28;20033;-51
2022/06/17 10:12:02;;;;;;;3.03;1.20;;;20.90;99.90;;;;;;4991364;28;20077;-51
2022/06/17 10:14:46;;;;;;;3.92;1.75;;;21.20;99.90;;;;;;4990737;28;20027;-51
2022/06/17 10:20:45;;;;;;;6.63;1.88;;;21.50;99.90;;;;;;4991144;28;20041;-50
2022/06/17 10:23:41;;;;;;;5.78;1.48;;;21.40;99.40;;;;;;4991293;28;20113;-52
2022/06/17 10:26:13;;;;;;;2.17;1.08;;;21.40;99.00;;;;;;4990971;28;20478;-51
2022/06/17 10:28:43;;;;;;;2.35;1.58;;;21.60;99.00;;;;;;4990840;28;20036;-52
2022/06/17 10:31:16;;;;;;;5.10;1.40;;;21.60;93.40;;;;;;4990982;28;20030;-50
2022/06/17 10:33:43;;;;;;;4.13;1.20;;;21.80;94.60;;;;;;4990809;28;20077;-52
2022/06/17 10:36:08;;;;;;;2.10;0.98;;;21.80;92.30;;;;;;4973713;28;20030;-52
2022/06/17 10:38:46;;;;;;;2.35;0.88;;;21.90;92.70;;;;;;4990745;28;20129;-51
2022/06/17 10:41:13;;;;;;;1.83;0.80;;;21.90;91.40;;;;;;4990884;28;20026;-51
2022/06/17 10:43:49;;;;;;;2.25;0.70;;;21.90;91.30;;;;;;4990815;28;20397;-51
2022/06/17 10:46:25;;;;;;;2.38;1.02;;;21.70;91.70;;;;;;4990766;28;20093;-52
2022/06/17 10:48:56;;;;;;;3.10;0.75;;;21.90;91.00;;;;;;4990531;28;20034;-51
2022/06/17 10:51:24;;;;;;;2.67;0.60;;;22.00;91.30;;;;;;4990569;28;20179;-51
2022/06/17 10:53:54;;;;;;;2.42;0.90;;;22.10;87.70;;;;;;4990617;28;20295;-51
2022/06/17 10:56:31;;;;;;;1.58;0.60;;;22.10;88.20;;;;;;4990611;28;20084;-51
2022/06/17 10:59:03;;;;;;;1.83;0.75;;;22.20;85.90;;;;;;4990550;28;20092;-52
2022/06/17 11:01:53;;;;;;;1.70;0.70;;;22.30;88.60;;;;;;5001001;28;20049;-52
2022/06/17 11:04:29;;;;;;;2.65;0.70;;;22.10;83.00;;;;;;4990117;28;20619;-52
2022/06/17 11:07:03;;;;;;;3.55;1.05;;;22.30;86.90;;;;;;5009908;28;20141;-52
2022/06/17 11:09:40;;;;;;;3.33;0.73;;;22.50;84.80;;;;;;5010042;28;20397;-51
2022/06/17 11:12:16;;;;;;;2.75;0.60;;;22.50;83.90;;;;;;5009860;28;20113;-53
2022/06/17 11:14:52;;;;;;;2.08;0.70;;;22.80;84.20;;;;;;5010034;28;20026;-51
2022/06/17 11:17:30;;;;;;;1.20;0.60;;;22.90;85.30;;;;;;5009884;28;20104;-52
2022/06/17 11:19:59;;;;;;;3.10;0.80;;;23.10;79.10;;;;;;5010103;28;20045;-51
2022/06/17 11:22:35;;;;;;;2.00;0.88;;;22.90;81.00;;;;;;5009815;28;20026;-51
2022/06/17 11:25:06;;;;;;;0.93;0.40;;;22.90;80.80;;;;;;4988785;28;20030;-51
2022/06/17 11:27:34;;;;;;;2.83;0.60;;;22.90;82.30;;;;;;5013610;28;20040;-52
2022/06/17 11:30:21;;;;;;;4.10;0.60;;;23.20;81.90;;;;;;5013687;28;20073;-52
2022/06/17 11:32:48;;;;;;;5.93;0.60;;;23.10;79.60;;;;;;5013943;28;20025;-52
2022/06/17 11:35:19;;;;;;;1.25;0.60;;;23.20;81.60;;;;;;5013791;28;20101;-51
2022/06/17 11:37:48;;;;;;;3.70;1.00;;;23.30;85.60;;;;;;5013463;28;20041;-51
2022/06/17 11:40:16;;;;;;;2.33;0.60;;;23.40;79.40;;;;;;5013465;28;20091;-52
2022/06/17 11:43:03;;;;;;;1.90;0.55;;;23.50;77.00;;;;;;5013637;28;20094;-52
2022/06/17 11:45:40;;;;;;;2.60;0.80;;;23.60;79.20;;;;;;5013705;28;20034;-52
2022/06/17 11:48:10;;;;;;;4.88;0.80;;;23.70;77.70;;;;;;5013533;28;20057;-51
2022/06/17 11:50:42;;;;;;;3.92;0.95;;;23.40;81.40;;;;;;5013464;28;20548;-50
2022/06/17 11:53:16;;;;;;;1.60;0.40;;;23.30;78.50;;;;;;5013341;28;20105;-50
2022/06/17 11:55:46;;;;;;;0.88;0.60;;;23.30;77.80;;;;;;5013047;28;20026;-50
2022/06/17 11:58:13;;;;;;;5.20;1.50;;;23.30;79.60;;;;;;5013055;28;20026;-51
2022/06/17 12:00:48;;;;;;;3.97;1.17;;;23.20;79.70;;;;;;5008719;28;20046;-51
2022/06/17 12:03:18;;;;;;;5.93;1.10;;;22.90;77.60;;;;;;4993380;28;20493;-51
2022/06/17 12:05:59;;;;;;;2.60;0.70;;;22.80;78.30;;;;;;4993533;28;20026;-52
2022/06/17 12:08:31;;;;;;;5.95;1.13;;;23.20;86.80;;;;;;4993260;28;20030;-52
2022/06/17 12:11:12;;;;;;;3.70;1.00;;;23.50;84.10;;;;;;4993331;28;20038;-51
2022/06/17 12:13:48;;;;;;;2.72;0.80;;;23.50;77.40;;;;;;4993426;28;20030;-51
2022/06/17 12:16:19;;;;;;;3.75;0.85;;;23.00;76.60;;;;;;4993369;28;20474;-51
2022/06/17 12:18:48;;;;;;;8.10;1.13;;;22.70;77.50;;;;;;4993217;28;20177;-51
2022/06/17 12:21:24;;;;;;;5.93;1.08;;;22.40;79.10;;;;;;4993101;28;20474;-51
2022/06/17 12:24:09;;;;;;;3.00;0.88;;;22.50;85.30;;;;;;4993307;28;20035;-51
2022/06/17 12:26:48;;;;;;;2.55;0.70;;;22.80;83.20;;;;;;4993224;28;20617;-52
2022/06/17 12:29:19;;;;;;;11.13;2.08;;;23.10;81.10;;;;;;4993203;28;20041;-51
2022/06/17 12:32:07;;;;;;;2.22;0.98;;;23.00;81.30;;;;;;4992920;28;20374;-51
2022/06/17 12:35:05;;;;;;;4.63;1.38;;;22.90;82.00;;;;;;4993033;28;20117;-51
2022/06/17 12:37:46;;;;;;;3.25;1.33;;;23.00;82.20;;;;;;4987473;28;20046;-51
2022/06/17 12:40:49;;;;;;;6.65;1.13;;;22.80;81.50;;;;;;4992865;28;20520;-51
2022/06/17 12:43:45;;;;;;;2.85;1.15;;;22.90;80.10;;;;;;4993050;28;20097;-51
2022/06/17 12:46:31;;;;;;;2.97;1.00;;;22.90;83.10;;;;;;4992904;28;20030;-52
2022/06/17 12:55:12;;;;;;;3.83;1.23;;;23.70;80.80;;;;;;4992921;28;20555;-52
2022/06/17 12:57:50;;;;;;;4.80;1.25;;;23.70;82.00;;;;;;4992660;28;20030;-50
2022/06/17 13:00:26;;;;;;;1.25;0.80;;;23.70;81.40;;;;;;4992509;28;20058;-51
2022/06/17 13:03:08;;;;;;;5.13;1.15;;;24.00;74.20;;;;;;5006344;28;20440;-50
2022/06/17 13:05:46;;;;;;;2.97;0.70;;;23.80;77.00;;;;;;5012005;28;20076;-50
2022/06/17 13:08:36;;;;;;;7.30;0.93;;;23.90;76.70;;;;;;5011841;28;20029;-51
2022/06/17 13:11:26;;;;;;;5.82;0.80;;;24.10;84.20;;;;;;5011948;28;20104;-51
2022/06/17 13:14:07;;;;;;;3.00;0.70;;;24.10;77.60;;;;;;5011982;28;20029;-50
2022/06/17 13:16:32;;;;;;;3.40;1.02;;;23.80;77.40;;;;;;5011976;28;20053;-50
2022/06/17 13:19:02;;;;;;;3.63;1.25;;;23.50;78.20;;;;;;5011744;28;20068;-51
2022/06/17 13:21:48;;;;;;;7.07;1.30;;;23.40;81.30;;;;;;5011712;28;20648;-51
2022/06/17 13:24:23;;;;;;;5.53;1.27;;;23.20;80.30;;;;;;5011783;28;20485;-51